Terminal Aerodrome Forecast
Issued by NWS Knoxville/Tri Cities, TN

Home | Current Version | Previous Version | Text Only | Print | Product List | Glossary On
Versions: 1 2 3 4 5 6 7 8 9 10 11 12 13 14 15 16 17 18 19 20 21 22 23 24 25 26 27 28 29 30 31 32
000
FTUS44 KMRX 270530
TAFTRI
TAF
KTRI 270530Z 2706/2806 28007KT P6SM OVC020
     FM270900 27005KT P6SM -SHSN OVC015
     FM271500 29007KT P6SM OVC025
     FM271800 29008KT P6SM BKN040
     FM280200 29006KT P6SM SCT035=

USA.gov is the U.S. government's official web portal to all federal, state and local government web resources and services.